sensor_id;sensor_type;location;lat;lon;timestamp;pressure;altitude;pressure_sealevel;temperature;humidity
41078;BME280;26823;42.662;23.352;2022-07-01T00:02:25;94762.47;;;21.79;56.64
41078;BME280;26823;42.662;23.352;2022-07-01T00:04:50;94775.25;;;21.87;57.05
41078;BME280;26823;42.662;23.352;2022-07-01T00:07:16;94779.63;;;21.88;57.17
41078;BME280;26823;42.662;23.352;2022-07-01T00:09:42;94768.47;;;21.97;56.73
41078;BME280;26823;42.662;23.352;2022-07-01T00:12:07;94773.16;;;21.96;56.47
41078;BME280;26823;42.662;23.352;2022-07-01T00:14:33;94776.63;;;21.93;57.74
41078;BME280;26823;42.662;23.352;2022-07-01T00:16:58;94763.56;;;21.90;56.85
41078;BME280;26823;42.662;23.352;2022-07-01T00:19:24;94777.75;;;21.92;56.60
41078;BME280;26823;42.662;23.352;2022-07-01T00:21:50;94771.72;;;21.87;56.63
41078;BME280;26823;42.662;23.352;2022-07-01T00:24:16;94769.66;;;21.83;56.50
41078;BME280;26823;42.662;23.352;2022-07-01T00:26:41;94778.72;;;21.84;56.59
41078;BME280;26823;42.662;23.352;2022-07-01T00:29:07;94789.91;;;21.91;56.75
41078;BME280;26823;42.662;23.352;2022-07-01T00:31:32;94790.06;;;21.82;57.07
41078;BME280;26823;42.662;23.352;2022-07-01T00:33:57;94786.38;;;21.91;57.13
41078;BME280;26823;42.662;23.352;2022-07-01T00:36:23;94770.72;;;21.79;56.95
41078;BME280;26823;42.662;23.352;2022-07-01T00:38:48;94786.19;;;21.83;57.87
41078;BME280;26823;42.662;23.352;2022-07-01T00:41:14;94783.88;;;21.86;57.94
41078;BME280;26823;42.662;23.352;2022-07-01T00:43:39;94790.63;;;21.88;58.56
41078;BME280;26823;42.662;23.352;2022-07-01T00:46:06;94781.91;;;21.86;57.64
41078;BME280;26823;42.662;23.352;2022-07-01T00:48:32;94791.56;;;21.80;57.39
41078;BME280;26823;42.662;23.352;2022-07-01T00:50:58;94788.94;;;21.83;59.03
41078;BME280;26823;42.662;23.352;2022-07-01T00:53:24;94796.84;;;21.85;58.06
41078;BME280;26823;42.662;23.352;2022-07-01T00:55:50;94770.22;;;21.61;57.67
41078;BME280;26823;42.662;23.352;2022-07-01T00:58:16;94759.78;;;21.66;58.93
41078;BME280;26823;42.662;23.352;2022-07-01T01:00:42;94795.84;;;21.77;59.04
41078;BME280;26823;42.662;23.352;2022-07-01T01:03:08;94785.78;;;21.69;59.06
41078;BME280;26823;42.662;23.352;2022-07-01T01:05:36;94744.47;;;21.41;59.59
41078;BME280;26823;42.662;23.352;2022-07-01T01:08:02;94795.75;;;21.74;58.49
41078;BME280;26823;42.662;23.352;2022-07-01T01:10:27;94770.28;;;21.36;58.79
41078;BME280;26823;42.662;23.352;2022-07-01T01:12:55;94804.97;;;21.53;59.26
41078;BME280;26823;42.662;23.352;2022-07-01T01:15:21;94786.06;;;21.51;59.05
41078;BME280;26823;42.662;23.352;2022-07-01T01:17:46;94786.44;;;21.38;59.06
41078;BME280;26823;42.662;23.352;2022-07-01T01:20:16;94801.81;;;21.39;59.21
41078;BME280;26823;42.662;23.352;2022-07-01T01:22:43;94764.66;;;21.04;59.29
41078;BME280;26823;42.662;23.352;2022-07-01T01:25:09;94785.16;;;21.07;60.75
41078;BME280;26823;42.662;23.352;2022-07-01T01:27:35;94779.66;;;21.07;61.21
41078;BME280;26823;42.662;23.352;2022-07-01T01:30:04;94787.19;;;21.10;60.38
41078;BME280;26823;42.662;23.352;2022-07-01T01:32:30;94754.94;;;20.94;60.89
41078;BME280;26823;42.662;23.352;2022-07-01T01:34:55;94782.03;;;21.21;60.37
41078;BME280;26823;42.662;23.352;2022-07-01T01:37:21;94796.69;;;21.25;59.97
41078;BME280;26823;42.662;23.352;2022-07-01T01:39:46;94808.81;;;21.24;61.68
41078;BME280;26823;42.662;23.352;2022-07-01T01:42:12;94771.19;;;20.99;61.29
41078;BME280;26823;42.662;23.352;2022-07-01T01:44:37;94809.53;;;21.21;61.59
41078;BME280;26823;42.662;23.352;2022-07-01T01:47:03;94810.69;;;21.20;62.53
41078;BME280;26823;42.662;23.352;2022-07-01T01:49:28;94795.22;;;21.15;62.11
41078;BME280;26823;42.662;23.352;2022-07-01T01:51:55;94804.47;;;21.10;62.31
41078;BME280;26823;42.662;23.352;2022-07-01T01:54:21;94800.16;;;21.09;62.47
41078;BME280;26823;42.662;23.352;2022-07-01T01:56:47;94764.78;;;20.83;62.88
41078;BME280;26823;42.662;23.352;2022-07-01T01:59:12;94796.38;;;21.01;62.81
41078;BME280;26823;42.662;23.352;2022-07-01T02:01:38;94799.81;;;20.98;62.97
41078;BME280;26823;42.662;23.352;2022-07-01T02:04:03;94800.97;;;20.97;63.68
41078;BME280;26823;42.662;23.352;2022-07-01T02:06:29;94801.44;;;20.87;63.83
41078;BME280;26823;42.662;23.352;2022-07-01T02:08:54;94806.69;;;20.80;64.68
41078;BME280;26823;42.662;23.352;2022-07-01T02:11:20;94798.91;;;20.57;65.85
41078;BME280;26823;42.662;23.352;2022-07-01T02:13:45;94808.63;;;20.67;65.75
41078;BME280;26823;42.662;23.352;2022-07-01T02:16:11;94790.66;;;20.57;66.03
41078;BME280;26823;42.662;23.352;2022-07-01T02:18:36;94810.56;;;20.54;66.75
41078;BME280;26823;42.662;23.352;2022-07-01T02:21:02;94823.38;;;20.37;67.97
41078;BME280;26823;42.662;23.352;2022-07-01T02:23:27;94807.47;;;20.43;67.48
41078;BME280;26823;42.662;23.352;2022-07-01T02:25:54;94816.00;;;20.17;68.50
41078;BME280;26823;42.662;23.352;2022-07-01T02:28:20;94821.94;;;20.19;68.35
41078;BME280;26823;42.662;23.352;2022-07-01T02:30:46;94818.78;;;20.29;68.06
41078;BME280;26823;42.662;23.352;2022-07-01T02:33:11;94831.72;;;20.41;68.00
41078;BME280;26823;42.662;23.352;2022-07-01T02:35:38;94821.09;;;20.40;67.97
41078;BME280;26823;42.662;23.352;2022-07-01T02:38:05;94827.28;;;20.49;67.83
41078;BME280;26823;42.662;23.352;2022-07-01T02:40:31;94825.06;;;20.30;68.33
41078;BME280;26823;42.662;23.352;2022-07-01T02:42:56;94836.28;;;20.25;68.58
41078;BME280;26823;42.662;23.352;2022-07-01T02:45:22;94846.00;;;20.22;68.88
41078;BME280;26823;42.662;23.352;2022-07-01T02:47:47;94836.72;;;20.14;68.92
41078;BME280;26823;42.662;23.352;2022-07-01T02:50:14;94834.50;;;20.08;69.18
41078;BME280;26823;42.662;23.352;2022-07-01T02:52:40;94832.16;;;19.85;70.66
41078;BME280;26823;42.662;23.352;2022-07-01T02:55:08;94841.94;;;20.07;69.95
41078;BME280;26823;42.662;23.352;2022-07-01T02:57:34;94826.13;;;19.92;70.23
41078;BME280;26823;42.662;23.352;2022-07-01T03:00:00;94847.09;;;20.09;70.20
41078;BME280;26823;42.662;23.352;2022-07-01T03:02:26;94850.94;;;19.95;71.67
41078;BME280;26823;42.662;23.352;2022-07-01T03:04:53;94851.75;;;19.96;72.34
41078;BME280;26823;42.662;23.352;2022-07-01T03:07:19;94858.44;;;19.86;73.27
41078;BME280;26823;42.662;23.352;2022-07-01T03:09:46;94858.91;;;19.88;73.49
41078;BME280;26823;42.662;23.352;2022-07-01T03:12:12;94864.13;;;19.81;73.29
41078;BME280;26823;42.662;23.352;2022-07-01T03:17:34;94879.31;;;19.99;72.97
41078;BME280;26823;42.662;23.352;2022-07-01T03:20:00;94871.22;;;20.49;70.47
41078;BME280;26823;42.662;23.352;2022-07-01T03:22:28;94880.19;;;21.45;67.10
41078;BME280;26823;42.662;23.352;2022-07-01T03:24:55;94879.78;;;22.40;63.38
41078;BME280;26823;42.662;23.352;2022-07-01T03:27:21;94878.16;;;23.16;59.83
41078;BME280;26823;42.662;23.352;2022-07-01T03:29:47;94874.50;;;22.95;60.22
41078;BME280;26823;42.662;23.352;2022-07-01T03:32:12;94873.91;;;22.42;62.28
41078;BME280;26823;42.662;23.352;2022-07-01T03:34:39;94881.56;;;22.04;63.75
41078;BME280;26823;42.662;23.352;2022-07-01T03:37:06;94881.72;;;21.83;64.62
41078;BME280;26823;42.662;23.352;2022-07-01T03:39:33;94869.97;;;21.45;65.80
41078;BME280;26823;42.662;23.352;2022-07-01T03:41:59;94876.31;;;21.21;67.16
41078;BME280;26823;42.662;23.352;2022-07-01T03:44:25;94869.69;;;20.97;68.56
41078;BME280;26823;42.662;23.352;2022-07-01T03:46:50;94870.16;;;20.87;69.34
41078;BME280;26823;42.662;23.352;2022-07-01T03:49:15;94866.66;;;20.65;70.80
41078;BME280;26823;42.662;23.352;2022-07-01T03:51:41;94846.50;;;20.49;70.87
41078;BME280;26823;42.662;23.352;2022-07-01T03:54:06;94873.56;;;20.72;70.34
41078;BME280;26823;42.662;23.352;2022-07-01T03:56:50;94876.78;;;20.86;69.52
41078;BME280;26823;42.662;23.352;2022-07-01T03:59:16;94874.97;;;20.90;69.54
41078;BME280;26823;42.662;23.352;2022-07-01T04:01:41;94848.84;;;20.72;69.84
41078;BME280;26823;42.662;23.352;2022-07-01T04:04:07;94872.88;;;20.75;71.34
41078;BME280;26823;42.662;23.352;2022-07-01T04:06:32;94872.38;;;20.60;72.76
41078;BME280;26823;42.662;23.352;2022-07-01T04:08:58;94877.19;;;20.63;73.06
41078;BME280;26823;42.662;23.352;2022-07-01T04:11:23;94872.34;;;20.81;71.24
41078;BME280;26823;42.662;23.352;2022-07-01T04:13:49;94886.75;;;21.03;69.99
41078;BME280;26823;42.662;23.352;2022-07-01T04:16:18;94877.94;;;21.10;69.45
41078;BME280;26823;42.662;23.352;2022-07-01T04:18:44;94880.44;;;21.15;69.08
41078;BME280;26823;42.662;23.352;2022-07-01T04:21:10;94876.78;;;21.11;70.22
41078;BME280;26823;42.662;23.352;2022-07-01T04:23:54;94894.25;;;22.09;65.80
41078;BME280;26823;42.662;23.352;2022-07-01T04:26:24;94879.53;;;22.45;63.90
41078;BME280;26823;42.662;23.352;2022-07-01T04:28:54;94893.41;;;22.81;62.59
41078;BME280;26823;42.662;23.352;2022-07-01T04:31:20;94897.97;;;22.89;61.78
41078;BME280;26823;42.662;23.352;2022-07-01T04:33:47;94892.72;;;23.00;61.61
41078;BME280;26823;42.662;23.352;2022-07-01T04:36:16;94888.00;;;23.01;61.27
41078;BME280;26823;42.662;23.352;2022-07-01T04:38:43;94896.63;;;22.83;61.09
41078;BME280;26823;42.662;23.352;2022-07-01T04:41:09;94892.91;;;22.31;63.55
41078;BME280;26823;42.662;23.352;2022-07-01T04:43:53;94894.00;;;22.14;64.09
41078;BME280;26823;42.662;23.352;2022-07-01T04:46:18;94879.19;;;22.19;64.24
41078;BME280;26823;42.662;23.352;2022-07-01T04:48:44;94894.91;;;22.46;63.35
41078;BME280;26823;42.662;23.352;2022-07-01T04:51:09;94892.50;;;22.61;63.82
41078;BME280;26823;42.662;23.352;2022-07-01T04:53:34;94906.84;;;22.67;64.22
41078;BME280;26823;42.662;23.352;2022-07-01T04:56:00;94904.78;;;22.47;63.65
41078;BME280;26823;42.662;23.352;2022-07-01T04:58:26;94898.91;;;22.49;63.39
41078;BME280;26823;42.662;23.352;2022-07-01T05:00:52;94895.28;;;22.45;63.33
41078;BME280;26823;42.662;23.352;2022-07-01T05:03:18;94897.03;;;22.53;63.30
41078;BME280;26823;42.662;23.352;2022-07-01T05:05:44;94889.94;;;22.52;62.93
41078;BME280;26823;42.662;23.352;2022-07-01T05:08:09;94893.31;;;22.45;62.75
41078;BME280;26823;42.662;23.352;2022-07-01T05:10:35;94878.22;;;22.27;64.02
41078;BME280;26823;42.662;23.352;2022-07-01T05:13:00;94890.25;;;22.35;63.64
41078;BME280;26823;42.662;23.352;2022-07-01T05:15:26;94878.47;;;22.22;64.59
41078;BME280;26823;42.662;23.352;2022-07-01T05:17:51;94827.63;;;22.03;63.87
41078;BME280;26823;42.662;23.352;2022-07-01T05:20:35;94893.50;;;22.69;62.77
41078;BME280;26823;42.662;23.352;2022-07-01T05:23:19;94905.00;;;22.87;62.24
41078;BME280;26823;42.662;23.352;2022-07-01T05:25:44;94897.53;;;22.87;61.91
41078;BME280;26823;42.662;23.352;2022-07-01T05:28:10;94887.03;;;22.93;61.69
41078;BME280;26823;42.662;23.352;2022-07-01T05:30:35;94857.03;;;22.59;61.90
41078;BME280;26823;42.662;23.352;2022-07-01T05:33:01;94893.06;;;22.99;61.09
41078;BME280;26823;42.662;23.352;2022-07-01T05:35:26;94900.09;;;22.96;61.21
41078;BME280;26823;42.662;23.352;2022-07-01T05:37:51;94894.56;;;22.80;61.12
41078;BME280;26823;42.662;23.352;2022-07-01T05:40:17;94903.75;;;23.00;62.04
41078;BME280;26823;42.662;23.352;2022-07-01T05:42:42;94887.00;;;23.09;62.60
41078;BME280;26823;42.662;23.352;2022-07-01T05:45:08;94894.34;;;23.17;61.79
41078;BME280;26823;42.662;23.352;2022-07-01T05:47:34;94894.56;;;23.28;61.04
41078;BME280;26823;42.662;23.352;2022-07-01T05:50:02;94900.47;;;23.26;61.08
41078;BME280;26823;42.662;23.352;2022-07-01T05:52:28;94889.69;;;23.37;60.55
41078;BME280;26823;42.662;23.352;2022-07-01T05:54:53;94896.16;;;23.45;60.75
41078;BME280;26823;42.662;23.352;2022-07-01T05:57:19;94883.31;;;23.53;60.20
41078;BME280;26823;42.662;23.352;2022-07-01T05:59:45;94895.91;;;23.70;60.33
41078;BME280;26823;42.662;23.352;2022-07-01T06:02:10;94892.06;;;23.74;59.74
41078;BME280;26823;42.662;23.352;2022-07-01T06:04:35;94903.03;;;23.71;60.87
41078;BME280;26823;42.662;23.352;2022-07-01T06:07:01;94906.03;;;23.82;60.00
41078;BME280;26823;42.662;23.352;2022-07-01T06:09:26;94902.91;;;23.99;59.28
41078;BME280;26823;42.662;23.352;2022-07-01T06:11:52;94893.41;;;24.00;59.22
41078;BME280;26823;42.662;23.352;2022-07-01T06:14:17;94901.66;;;24.16;59.08
41078;BME280;26823;42.662;23.352;2022-07-01T06:16:43;94909.72;;;24.25;59.39
41078;BME280;26823;42.662;23.352;2022-07-01T06:19:08;94893.41;;;24.39;58.06
41078;BME280;26823;42.662;23.352;2022-07-01T06:21:34;94889.13;;;24.22;59.46
41078;BME280;26823;42.662;23.352;2022-07-01T06:23:59;94904.34;;;24.32;58.48
41078;BME280;26823;42.662;23.352;2022-07-01T06:26:25;94906.06;;;24.40;57.26
41078;BME280;26823;42.662;23.352;2022-07-01T06:28:51;94906.31;;;24.55;57.36
41078;BME280;26823;42.662;23.352;2022-07-01T06:31:16;94910.19;;;24.70;58.17
41078;BME280;26823;42.662;23.352;2022-07-01T06:33:42;94908.56;;;24.69;58.01
41078;BME280;26823;42.662;23.352;2022-07-01T06:36:07;94903.88;;;24.69;57.62
41078;BME280;26823;42.662;23.352;2022-07-01T06:38:33;94912.16;;;24.69;56.76
41078;BME280;26823;42.662;23.352;2022-07-01T06:40:58;94912.53;;;24.68;57.01
41078;BME280;26823;42.662;23.352;2022-07-01T06:43:42;94903.78;;;24.66;58.04
41078;BME280;26823;42.662;23.352;2022-07-01T06:46:08;94871.50;;;24.50;57.14
41078;BME280;26823;42.662;23.352;2022-07-01T06:48:34;94890.97;;;24.77;56.03
41078;BME280;26823;42.662;23.352;2022-07-01T06:51:01;94895.81;;;24.84;56.31
41078;BME280;26823;42.662;23.352;2022-07-01T06:53:27;94888.56;;;24.75;56.92
41078;BME280;26823;42.662;23.352;2022-07-01T06:55:52;94901.66;;;25.02;56.22
41078;BME280;26823;42.662;23.352;2022-07-01T06:58:18;94898.16;;;25.05;55.26
41078;BME280;26823;42.662;23.352;2022-07-01T07:00:43;94900.78;;;25.21;54.43
41078;BME280;26823;42.662;23.352;2022-07-01T07:03:09;94899.00;;;25.32;55.29
41078;BME280;26823;42.662;23.352;2022-07-01T07:05:34;94893.72;;;25.23;55.16
41078;BME280;26823;42.662;23.352;2022-07-01T07:08:00;94895.47;;;25.35;53.77
41078;BME280;26823;42.662;23.352;2022-07-01T07:10:25;94890.75;;;25.36;53.48
41078;BME280;26823;42.662;23.352;2022-07-01T07:12:51;94904.47;;;25.29;53.93
41078;BME280;26823;42.662;23.352;2022-07-01T07:15:16;94876.66;;;25.21;53.28
41078;BME280;26823;42.662;23.352;2022-07-01T07:17:42;94912.38;;;25.30;52.66
41078;BME280;26823;42.662;23.352;2022-07-01T07:20:08;94913.41;;;25.18;54.69
41078;BME280;26823;42.662;23.352;2022-07-01T07:22:34;94879.56;;;25.05;54.47
41078;BME280;26823;42.662;23.352;2022-07-01T07:24:59;94912.44;;;25.34;54.31
41078;BME280;26823;42.662;23.352;2022-07-01T07:27:25;94886.56;;;25.22;55.25
41078;BME280;26823;42.662;23.352;2022-07-01T07:29:51;94905.34;;;25.60;53.35
41078;BME280;26823;42.662;23.352;2022-07-01T07:32:16;94908.81;;;25.53;53.54
41078;BME280;26823;42.662;23.352;2022-07-01T07:34:42;94885.97;;;25.60;52.98
41078;BME280;26823;42.662;23.352;2022-07-01T07:37:07;94908.50;;;25.88;53.38
41078;BME280;26823;42.662;23.352;2022-07-01T07:39:33;94898.94;;;25.82;53.11
41078;BME280;26823;42.662;23.352;2022-07-01T07:41:58;94900.25;;;25.92;53.17
41078;BME280;26823;42.662;23.352;2022-07-01T07:44:24;94906.84;;;26.11;53.63
41078;BME280;26823;42.662;23.352;2022-07-01T07:46:49;94890.63;;;26.13;53.67
41078;BME280;26823;42.662;23.352;2022-07-01T07:49:15;94905.81;;;26.23;50.57
41078;BME280;26823;42.662;23.352;2022-07-01T07:51:40;94898.41;;;25.73;52.03
41078;BME280;26823;42.662;23.352;2022-07-01T07:54:06;94886.84;;;25.98;52.34
41078;BME280;26823;42.662;23.352;2022-07-01T07:56:31;94897.19;;;26.31;51.65
41078;BME280;26823;42.662;23.352;2022-07-01T07:58:57;94887.34;;;26.34;51.55
41078;BME280;26823;42.662;23.352;2022-07-01T08:01:23;94898.78;;;26.70;51.59
41078;BME280;26823;42.662;23.352;2022-07-01T08:03:48;94877.91;;;26.80;52.04
41078;BME280;26823;42.662;23.352;2022-07-01T08:06:14;94900.28;;;26.98;49.05
41078;BME280;26823;42.662;23.352;2022-07-01T08:08:39;94879.59;;;26.92;49.92
41078;BME280;26823;42.662;23.352;2022-07-01T08:11:05;94892.03;;;27.05;48.05
41078;BME280;26823;42.662;23.352;2022-07-01T08:13:31;94897.91;;;27.00;49.74
41078;BME280;26823;42.662;23.352;2022-07-01T08:15:57;94891.94;;;26.98;47.97
41078;BME280;26823;42.662;23.352;2022-07-01T08:18:22;94870.34;;;26.73;47.64
41078;BME280;26823;42.662;23.352;2022-07-01T08:20:48;94890.63;;;26.81;49.66
41078;BME280;26823;42.662;23.352;2022-07-01T08:23:20;94870.13;;;26.96;48.99
41078;BME280;26823;42.662;23.352;2022-07-01T08:25:47;94884.69;;;27.31;49.36
41078;BME280;26823;42.662;23.352;2022-07-01T08:28:13;94881.97;;;27.38;50.98
41078;BME280;26823;42.662;23.352;2022-07-01T08:30:38;94880.91;;;27.54;50.56
41078;BME280;26823;42.662;23.352;2022-07-01T08:33:04;94876.28;;;27.76;48.99
41078;BME280;26823;42.662;23.352;2022-07-01T08:35:29;94885.00;;;27.74;49.60
41078;BME280;26823;42.662;23.352;2022-07-01T08:37:55;94881.00;;;27.68;48.81
41078;BME280;26823;42.662;23.352;2022-07-01T08:40:25;94881.94;;;27.94;47.56
41078;BME280;26823;42.662;23.352;2022-07-01T08:42:50;94870.41;;;27.92;47.97
41078;BME280;26823;42.662;23.352;2022-07-01T08:45:16;94870.53;;;28.13;46.83
41078;BME280;26823;42.662;23.352;2022-07-01T08:47:51;94883.72;;;28.35;45.62
41078;BME280;26823;42.662;23.352;2022-07-01T08:50:18;94876.59;;;28.48;46.47
41078;BME280;26823;42.662;23.352;2022-07-01T08:52:43;94861.91;;;28.44;47.53
41078;BME280;26823;42.662;23.352;2022-07-01T08:55:08;94855.97;;;28.60;46.37
41078;BME280;26823;42.662;23.352;2022-07-01T08:57:34;94882.19;;;28.62;45.87
41078;BME280;26823;42.662;23.352;2022-07-01T09:00:02;94855.97;;;28.60;45.82
41078;BME280;26823;42.662;23.352;2022-07-01T09:02:49;94866.38;;;28.81;45.44
41078;BME280;26823;42.662;23.352;2022-07-01T09:05:15;94860.38;;;28.79;44.32
41078;BME280;26823;42.662;23.352;2022-07-01T09:07:41;94861.59;;;28.82;44.96
41078;BME280;26823;42.662;23.352;2022-07-01T09:10:18;94869.56;;;29.08;42.16
41078;BME280;26823;42.662;23.352;2022-07-01T09:12:47;94874.31;;;29.26;41.80
41078;BME280;26823;42.662;23.352;2022-07-01T09:15:24;94876.75;;;29.31;40.75
41078;BME280;26823;42.662;23.352;2022-07-01T09:18:05;94874.75;;;29.35;43.03
41078;BME280;26823;42.662;23.352;2022-07-01T09:23:06;94870.34;;;29.27;39.15
41078;BME280;26823;42.662;23.352;2022-07-01T09:25:37;94869.56;;;29.44;38.92
41078;BME280;26823;42.662;23.352;2022-07-01T09:28:11;94874.34;;;29.62;40.75
41078;BME280;26823;42.662;23.352;2022-07-01T09:30:38;94845.69;;;29.22;39.98
41078;BME280;26823;42.662;23.352;2022-07-01T09:35:34;94861.97;;;29.70;39.02
41078;BME280;26823;42.662;23.352;2022-07-01T09:38:00;94825.38;;;29.50;39.45
41078;BME280;26823;42.662;23.352;2022-07-01T09:40:25;94861.22;;;29.48;35.10
41078;BME280;26823;42.662;23.352;2022-07-01T09:48:41;94846.84;;;29.64;37.09
41078;BME280;26823;42.662;23.352;2022-07-01T09:51:08;94811.06;;;29.52;36.80
41078;BME280;26823;42.662;23.352;2022-07-01T09:53:34;94840.84;;;29.73;36.33
41078;BME280;26823;42.662;23.352;2022-07-01T09:56:00;94838.06;;;29.91;33.90
41078;BME280;26823;42.662;23.352;2022-07-01T09:58:26;94841.22;;;29.86;31.22
41078;BME280;26823;42.662;23.352;2022-07-01T10:00:52;94834.47;;;29.80;31.95
41078;BME280;26823;42.662;23.352;2022-07-01T10:03:20;94838.84;;;29.81;30.41
41078;BME280;26823;42.662;23.352;2022-07-01T10:05:49;94843.59;;;29.94;30.49
41078;BME280;26823;42.662;23.352;2022-07-01T10:14:03;94837.47;;;30.32;29.64
41078;BME280;26823;42.662;23.352;2022-07-01T10:16:30;94833.94;;;30.21;29.84
41078;BME280;26823;42.662;23.352;2022-07-01T10:18:57;94840.63;;;30.38;30.15
41078;BME280;26823;42.662;23.352;2022-07-01T10:21:29;94836.66;;;30.35;29.98
41078;BME280;26823;42.662;23.352;2022-07-01T10:24:31;94833.44;;;30.44;29.24
41078;BME280;26823;42.662;23.352;2022-07-01T10:27:00;94798.53;;;30.10;29.67
41078;BME280;26823;42.662;23.352;2022-07-01T10:29:30;94801.66;;;30.23;29.14
41078;BME280;26823;42.662;23.352;2022-07-01T10:32:42;94819.97;;;30.24;26.00
41078;BME280;26823;42.662;23.352;2022-07-01T10:34:48;94818.34;;;30.31;26.13
41078;BME280;26823;42.662;23.352;2022-07-01T10:37:17;94809.97;;;30.31;23.88
41078;BME280;26823;42.662;23.352;2022-07-01T10:42:57;94817.75;;;30.68;24.95
41078;BME280;26823;42.662;23.352;2022-07-01T10:45:23;94810.59;;;30.64;24.52
41078;BME280;26823;42.662;23.352;2022-07-01T10:48:19;94803.44;;;30.63;24.09
41078;BME280;26823;42.662;23.352;2022-07-01T10:50:48;94796.97;;;30.73;25.04
41078;BME280;26823;42.662;23.352;2022-07-01T10:53:14;94805.31;;;30.80;25.47
41078;BME280;26823;42.662;23.352;2022-07-01T10:55:44;94791.28;;;30.91;27.69
41078;BME280;26823;42.662;23.352;2022-07-01T10:58:11;94788.84;;;30.93;26.72
41078;BME280;26823;42.662;23.352;2022-07-01T11:00:41;94797.97;;;30.97;27.16
41078;BME280;26823;42.662;23.352;2022-07-01T11:03:18;94805.00;;;30.67;27.22
41078;BME280;26823;42.662;23.352;2022-07-01T11:05:45;94804.25;;;30.63;27.98
41078;BME280;26823;42.662;23.352;2022-07-01T11:08:11;94804.69;;;30.54;26.71
41078;BME280;26823;42.662;23.352;2022-07-01T11:10:40;94790.34;;;30.52;27.53
41078;BME280;26823;42.662;23.352;2022-07-01T11:13:06;94797.50;;;30.57;26.53
41078;BME280;26823;42.662;23.352;2022-07-01T11:15:33;94784.72;;;30.60;27.21
41078;BME280;26823;42.662;23.352;2022-07-01T11:17:59;94796.78;;;30.98;28.66
41078;BME280;26823;42.662;23.352;2022-07-01T11:20:26;94793.22;;;30.98;26.88
41078;BME280;26823;42.662;23.352;2022-07-01T11:22:52;94787.94;;;31.11;28.05
41078;BME280;26823;42.662;23.352;2022-07-01T11:25:19;94785.81;;;31.26;27.86
41078;BME280;26823;42.662;23.352;2022-07-01T11:27:47;94792.56;;;31.28;26.95
41078;BME280;26823;42.662;23.352;2022-07-01T11:30:13;94777.91;;;31.17;25.69
41078;BME280;26823;42.662;23.352;2022-07-01T11:32:44;94788.34;;;31.09;25.52
41078;BME280;26823;42.662;23.352;2022-07-01T11:35:15;94785.69;;;30.91;24.29
41078;BME280;26823;42.662;23.352;2022-07-01T11:40:57;94773.56;;;31.50;25.36
41078;BME280;26823;42.662;23.352;2022-07-01T11:43:26;94779.56;;;31.49;26.25
41078;BME280;26823;42.662;23.352;2022-07-01T11:45:53;94771.00;;;31.29;26.63
41078;BME280;26823;42.662;23.352;2022-07-01T11:48:51;94763.25;;;31.02;26.00
41078;BME280;26823;42.662;23.352;2022-07-01T11:51:18;94771.38;;;31.31;26.71
41078;BME280;26823;42.662;23.352;2022-07-01T11:53:46;94773.88;;;31.63;26.91
41078;BME280;26823;42.662;23.352;2022-07-01T11:56:14;94758.91;;;31.39;25.32
41078;BME280;26823;42.662;23.352;2022-07-01T11:58:51;94765.25;;;31.47;24.63
41078;BME280;26823;42.662;23.352;2022-07-01T12:01:32;94772.00;;;31.49;24.39
41078;BME280;26823;42.662;23.352;2022-07-01T12:04:03;94769.66;;;31.44;25.07
41078;BME280;26823;42.662;23.352;2022-07-01T12:06:29;94759.91;;;31.63;26.38
41078;BME280;26823;42.662;23.352;2022-07-01T12:08:56;94758.88;;;31.81;26.01
41078;BME280;26823;42.662;23.352;2022-07-01T12:11:22;94747.59;;;31.88;25.00
41078;BME280;26823;42.662;23.352;2022-07-01T12:13:49;94716.97;;;31.43;25.66
41078;BME280;26823;42.662;23.352;2022-07-01T12:16:15;94752.63;;;31.69;27.12
41078;BME280;26823;42.662;23.352;2022-07-01T12:21:18;94752.63;;;31.69;25.34
41078;BME280;26823;42.662;23.352;2022-07-01T12:24:05;94745.78;;;31.36;24.64
41078;BME280;26823;42.662;23.352;2022-07-01T12:26:30;94739.56;;;31.21;24.88
41078;BME280;26823;42.662;23.352;2022-07-01T12:28:56;94739.19;;;31.19;26.05
41078;BME280;26823;42.662;23.352;2022-07-01T12:31:24;94738.81;;;31.17;26.13
41078;BME280;26823;42.662;23.352;2022-07-01T12:33:51;94732.66;;;30.91;25.67
41078;BME280;26823;42.662;23.352;2022-07-01T12:36:17;94746.19;;;30.93;26.14
41078;BME280;26823;42.662;23.352;2022-07-01T12:38:43;94748.97;;;30.93;27.01
41078;BME280;26823;42.662;23.352;2022-07-01T12:41:30;94709.53;;;30.87;25.38
41078;BME280;26823;42.662;23.352;2022-07-01T12:43:56;94732.91;;;31.08;25.24
41078;BME280;26823;42.662;23.352;2022-07-01T12:46:28;94728.47;;;31.14;27.07
41078;BME280;26823;42.662;23.352;2022-07-01T12:48:55;94726.84;;;31.16;26.94
41078;BME280;26823;42.662;23.352;2022-07-01T12:51:20;94697.84;;;30.99;27.13
41078;BME280;26823;42.662;23.352;2022-07-01T12:53:46;94718.47;;;31.16;28.20
41078;BME280;26823;42.662;23.352;2022-07-01T12:56:31;94723.31;;;31.09;30.42
41078;BME280;26823;42.662;23.352;2022-07-01T12:58:57;94715.34;;;31.03;30.78
41078;BME280;26823;42.662;23.352;2022-07-01T13:01:23;94739.00;;;30.95;32.77
41078;BME280;26823;42.662;23.352;2022-07-01T13:03:48;94738.03;;;30.67;34.01
41078;BME280;26823;42.662;23.352;2022-07-01T13:06:14;94720.25;;;30.43;34.61
41078;BME280;26823;42.662;23.352;2022-07-01T13:08:39;94732.44;;;30.67;34.21
41078;BME280;26823;42.662;23.352;2022-07-01T13:11:05;94730.59;;;30.50;33.69
41078;BME280;26823;42.662;23.352;2022-07-01T13:13:33;94728.22;;;30.45;33.62
41078;BME280;26823;42.662;23.352;2022-07-01T13:15:59;94725.00;;;30.50;33.27
41078;BME280;26823;42.662;23.352;2022-07-01T13:18:24;94713.84;;;30.50;33.52
41078;BME280;26823;42.662;23.352;2022-07-01T13:20:50;94732.88;;;30.62;33.40